Time;durP1;ratioP1;P1;durP2;ratioP2;P2;SDS_P1;SDS_P2;PMS_P1;PMS_P2;Temp;Humidity;BMP_temperature;BMP_pressure;BME280_temperature;BME280_humidity;BME280_pressure;Samples;Min_cycle;Max_cycle;Signal;HPM_P1;HPM_P2
2021/12/16 00:02:51;;;;;;;0.30;0.30;;;;;;;7.41;100.00;99898.28;4971943;28;20065;-71
2021/12/16 00:05:35;;;;;;;0.57;0.20;;;;;;;7.40;100.00;99896.53;4973440;28;20067;-70
2021/12/16 00:08:16;;;;;;;0.40;0.30;;;;;;;7.39;100.00;99902.53;4971923;28;20051;-71
2021/12/16 00:10:52;;;;;;;1.38;0.20;;;;;;;7.39;100.00;99905.09;4970617;28;20053;-72
2021/12/16 00:30:06;;;;;;;0.70;0.40;;;;;;;7.31;100.00;99908.31;4972436;28;20061;-69
2021/12/16 00:32:47;;;;;;;1.45;0.35;;;;;;;7.27;100.00;99906.47;4970719;28;20137;-69
2021/12/16 00:35:17;;;;;;;1.27;0.65;;;;;;;7.30;100.00;99908.28;4971954;28;20051;-70
2021/12/16 00:37:46;;;;;;;0.50;0.30;;;;;;;7.29;100.00;99915.13;4970810;28;20130;-69
2021/12/16 00:40:16;;;;;;;0.65;0.40;;;;;;;7.25;100.00;99913.28;4958298;28;20050;-71
2021/12/16 00:42:50;;;;;;;0.50;0.40;;;;;;;7.26;100.00;99927.00;4971836;28;20050;-69
2021/12/16 00:48:19;;;;;;;4.93;0.45;;;;;;;7.23;100.00;99938.09;4971262;28;20057;-69
2021/12/16 00:56:21;;;;;;;0.93;0.80;;;;;;;7.25;100.00;99939.00;4969661;28;20078;-69
2021/12/16 00:58:54;;;;;;;0.32;0.32;;;;;;;7.27;100.00;99941.66;4972487;28;20050;-68
2021/12/16 01:01:35;;;;;;;1.52;0.73;;;;;;;7.22;100.00;99949.22;4958887;28;20051;-68
2021/12/16 01:04:28;;;;;;;1.42;0.50;;;;;;;7.19;100.00;99958.53;4972124;28;20090;-69
2021/12/16 01:07:13;;;;;;;1.10;0.40;;;;;;;7.15;100.00;99957.59;4961284;28;20133;-68
2021/12/16 01:33:27;;;;;;;0.70;0.38;;;;;;;7.12;100.00;99953.22;4972435;28;20134;-68
2021/12/16 01:35:17;;;;;;;1.10;0.43;;;;;;;6.98;100.00;99969.03;4959330;28;20105;-70
2021/12/16 01:41:25;;;;;;;0.95;0.52;;;;;;;6.93;100.00;99972.34;4892633;29;20127;-70
2021/12/16 01:46:55;;;;;;;1.83;0.57;;;;;;;6.90;100.00;99972.25;4970360;28;20198;-71
2021/12/16 01:49:33;;;;;;;1.67;0.50;;;;;;;6.86;100.00;99972.97;4971520;28;20058;-70
2021/12/16 01:52:26;;;;;;;0.52;0.28;;;;;;;6.79;100.00;99968.47;4970861;28;20051;-69
2021/12/16 01:55:06;;;;;;;0.45;0.30;;;;;;;6.77;100.00;99971.81;4971707;28;20140;-68
2021/12/16 01:57:40;;;;;;;0.65;0.55;;;;;;;6.81;100.00;99973.66;4959228;28;20054;-69
2021/12/16 02:00:13;;;;;;;0.35;0.35;;;;;;;6.83;100.00;99969.44;4983647;28;20408;-71
2021/12/16 02:02:58;;;;;;;0.57;0.30;;;;;;;6.83;100.00;99980.59;4970626;28;20135;-69
2021/12/16 02:06:04;;;;;;;1.08;0.47;;;;;;;6.80;100.00;99979.63;4972157;28;20093;-68
2021/12/16 02:08:38;;;;;;;0.60;0.50;;;;;;;6.83;100.00;99983.19;4971286;28;20145;-69
2021/12/16 02:34:05;;;;;;;0.90;0.43;;;;;;;6.83;100.00;100003.75;5056974;28;20136;-70
2021/12/16 02:36:41;;;;;;;0.40;0.40;;;;;;;6.85;100.00;100009.81;5053253;28;20053;-72
2021/12/16 02:39:14;;;;;;;0.90;0.30;;;;;;;6.88;100.00;100014.19;5067907;28;20048;-72
2021/12/16 02:41:47;;;;;;;0.52;0.30;;;;;;;6.88;100.00;100017.63;5053872;28;20493;-71
2021/12/16 02:44:26;;;;;;;0.47;0.30;;;;;;;6.81;100.00;100018.25;5066625;28;20414;-71
2021/12/16 02:49:46;;;;;;;0.35;0.30;;;;;;;6.80;100.00;100024.19;5053106;28;20057;-73
2021/12/16 02:52:17;;;;;;;1.20;0.30;;;;;;;6.80;100.00;100028.47;5066692;28;20045;-72
2021/12/16 02:54:48;;;;;;;0.70;0.20;;;;;;;6.78;100.00;100030.13;5067400;28;20048;-70
2021/12/16 02:57:17;;;;;;;3.60;0.68;;;;;;;6.75;100.00;100024.88;5054581;28;20044;-70
2021/12/16 02:59:47;;;;;;;0.60;0.40;;;;;;;6.73;100.00;100029.97;5070309;28;20044;-72
2021/12/16 03:02:18;;;;;;;0.22;0.15;;;;;;;6.72;100.00;100038.50;5069268;28;20065;-71
2021/12/16 03:04:49;;;;;;;1.35;0.38;;;;;;;6.68;100.00;100034.09;5068817;28;20540;-71
2021/12/16 03:07:20;;;;;;;0.43;0.25;;;;;;;6.67;100.00;100040.06;5067393;28;20056;-70
2021/12/16 03:12:57;;;;;;;3.25;0.70;;;;;;;6.60;100.00;100040.69;5054991;28;20052;-71
2021/12/16 03:18:32;;;;;;;2.13;0.80;;;;;;;6.54;100.00;100048.19;5063069;28;20502;-70
2021/12/16 03:21:09;;;;;;;0.95;0.30;;;;;;;6.52;100.00;100049.81;5066067;28;20084;-71
2021/12/16 03:23:51;;;;;;;0.35;0.25;;;;;;;6.52;100.00;100049.81;5064199;28;20084;-70
2021/12/16 03:29:33;;;;;;;0.85;0.30;;;;;;;6.54;100.00;100053.31;5053351;28;20059;-71
2021/12/16 03:35:03;;;;;;;1.05;0.32;;;;;;;6.52;100.00;100058.38;5052820;28;20059;-72
2021/12/16 03:37:33;;;;;;;0.10;0.05;;;;;;;6.54;100.00;100066.16;5053187;28;20048;-72
2021/12/16 03:40:06;;;;;;;0.05;0.05;;;;;;;6.48;100.00;100054.84;5052864;28;20498;-71
2021/12/16 03:42:39;;;;;;;0.20;0.13;;;;;;;6.55;100.00;100057.63;5052044;28;20510;-71
2021/12/16 03:46:25;;;;;;;1.05;0.20;;;;;;;6.57;100.00;100063.69;5053387;28;20490;-71
2021/12/16 03:48:03;;;;;;;0.10;0.10;;;;;;;6.55;100.00;100067.91;5052862;28;20552;-71
2021/12/16 03:50:31;;;;;;;0.65;0.20;;;;;;;6.53;100.00;100065.31;5039022;28;20110;-71
2021/12/16 03:53:00;;;;;;;1.63;0.15;;;;;;;6.54;100.00;100063.59;5051696;28;20095;-71
2021/12/16 03:55:29;;;;;;;0.43;0.10;;;;;;;6.55;100.00;100068.81;5052314;28;20053;-70
2021/12/16 03:57:59;;;;;;;0.10;0.10;;;;;;;6.59;100.00;100074.91;5052440;28;20053;-71
2021/12/16 04:00:31;;;;;;;0.88;0.20;;;;;;;6.61;100.00;100080.97;5051671;28;20084;-71
2021/12/16 04:03:00;;;;;;;0.32;0.20;;;;;;;6.62;100.00;100078.47;5052401;28;20065;-70
2021/12/16 04:05:29;;;;;;;0.70;0.30;;;;;;;6.57;100.00;100073.97;5052508;28;20053;-71
2021/12/16 04:07:57;;;;;;;0.17;0.17;;;;;;;6.65;100.00;100085.41;5052352;28;20084;-71
2021/12/16 04:10:33;;;;;;;0.25;0.00;;;;;;;6.65;100.00;100083.69;5054196;28;20478;-70
2021/12/16 04:13:05;;;;;;;2.08;0.20;;;;;;;6.63;100.00;100093.06;5054150;28;20053;-69
2021/12/16 04:15:35;;;;;;;0.10;0.10;;;;;;;6.66;100.00;100092.28;5049285;28;20406;-70
2021/12/16 04:18:04;;;;;;;0.98;0.20;;;;;;;6.69;100.00;100098.41;5052888;28;20052;-72
2021/12/16 04:20:33;;;;;;;6.45;0.10;;;;;;;6.71;100.00;100103.59;5052194;28;20474;-70
2021/12/16 04:23:02;;;;;;;0.30;0.10;;;;;;;6.72;100.00;100100.22;5051711;28;20085;-71
2021/12/16 04:25:37;;;;;;;0.10;0.10;;;;;;;6.72;100.00;100106.22;5052349;28;20099;-70
2021/12/16 04:28:13;;;;;;;2.15;0.47;;;;;;;6.71;100.00;100108.72;5039268;28;20494;-71
2021/12/16 04:30:42;;;;;;;0.77;0.40;;;;;;;6.73;100.00;100109.66;5052659;28;20128;-71
2021/12/16 04:33:11;;;;;;;2.05;0.80;;;;;;;6.75;100.00;100114.88;5037021;28;20045;-70
2021/12/16 04:35:41;;;;;;;0.17;0.17;;;;;;;6.73;100.00;100114.81;5052292;28;20061;-70
2021/12/16 04:38:11;;;;;;;3.50;0.30;;;;;;;6.74;100.00;100120.84;5051485;28;20072;-70
2021/12/16 04:40:43;;;;;;;0.50;0.30;;;;;;;6.76;100.00;100117.50;5052269;28;20049;-72
2021/12/16 04:43:19;;;;;;;0.40;0.20;;;;;;;6.80;100.00;100123.59;5051304;28;20041;-71
2021/12/16 04:45:48;;;;;;;0.55;0.30;;;;;;;6.81;100.00;100121.09;5052089;28;20581;-70
2021/12/16 04:48:17;;;;;;;0.32;0.30;;;;;;;6.84;100.00;100135.75;5053961;28;20087;-71
2021/12/16 04:50:45;;;;;;;0.57;0.43;;;;;;;6.84;100.00;100136.63;5054349;28;20497;-71
2021/12/16 04:53:14;;;;;;;0.65;0.43;;;;;;;6.87;100.00;100130.72;5052828;28;20115;-71
2021/12/16 04:55:42;;;;;;;1.33;0.22;;;;;;;6.88;100.00;100138.50;5038965;28;20069;-72
2021/12/16 04:58:11;;;;;;;0.65;0.30;;;;;;;6.89;100.00;100144.50;5051846;28;20045;-70
2021/12/16 05:00:41;;;;;;;0.60;0.40;;;;;;;6.89;100.00;100149.63;5051267;28;20510;-70
2021/12/16 05:03:09;;;;;;;1.27;0.60;;;;;;;6.87;100.00;100149.59;5051369;28;20052;-68
2021/12/16 05:05:38;;;;;;;0.65;0.45;;;;;;;6.87;100.00;100144.47;5051123;28;20076;-70
2021/12/16 05:08:06;;;;;;;1.05;0.50;;;;;;;6.87;100.00;100152.19;5053400;28;20118;-70
2021/12/16 05:10:35;;;;;;;1.65;0.40;;;;;;;6.87;100.00;100156.44;5053663;28;20056;-70
2021/12/16 05:13:05;;;;;;;1.17;0.57;;;;;;;6.86;100.00;100165.84;5050956;28;20049;-70
2021/12/16 05:15:37;;;;;;;2.03;0.50;;;;;;;6.86;100.00;100162.41;5050845;28;20439;-71
2021/12/16 05:18:09;;;;;;;0.43;0.35;;;;;;;6.79;100.00;100168.16;5050611;28;20399;-71
2021/12/16 05:20:41;;;;;;;;;;;;;;;6.75;100.00;100166.28;5051022;28;20478;-69
2021/12/16 05:26:15;;;;;;;1.63;0.52;;;;;;;6.72;100.00;100182.50;5051366;28;20183;-71
2021/12/16 05:28:46;;;;;;;0.50;0.32;;;;;;;6.72;100.00;100187.63;5050159;28;20049;-70
2021/12/16 05:31:15;;;;;;;0.85;0.60;;;;;;;6.72;100.00;100191.06;5050881;28;20080;-70
2021/12/16 05:33:46;;;;;;;1.05;0.45;;;;;;;6.70;100.00;100190.13;5050403;28;20080;-71
2021/12/16 05:36:14;;;;;;;1.10;0.65;;;;;;;6.64;100.00;100183.91;5050699;28;20048;-71
2021/12/16 05:38:43;;;;;;;0.70;0.50;;;;;;;6.74;100.00;100206.56;5049907;28;20053;-71
2021/12/16 05:41:14;;;;;;;1.17;0.60;;;;;;;6.77;100.00;100205.78;5050051;28;20099;-72
2021/12/16 05:43:43;;;;;;;1.45;0.57;;;;;;;6.68;100.00;100190.91;5050481;28;20520;-72
2021/12/16 05:46:15;;;;;;;1.80;0.40;;;;;;;6.75;100.00;100207.44;5050913;28;20041;-72
2021/12/16 05:48:47;;;;;;;2.60;0.60;;;;;;;6.76;100.00;100212.63;5050498;28;20045;-72
2021/12/16 05:51:21;;;;;;;3.00;0.38;;;;;;;6.75;100.00;100216.00;5050838;28;20379;-71
2021/12/16 05:53:51;;;;;;;0.43;0.40;;;;;;;6.79;100.00;100219.59;5050286;28;20056;-69
2021/12/16 05:56:20;;;;;;;1.15;0.60;;;;;;;6.79;100.00;100222.16;5050537;28;20059;-71
2021/12/16 05:58:49;;;;;;;0.35;0.20;;;;;;;6.75;100.00;100226.28;5050230;28;20053;-71
2021/12/16 06:01:21;;;;;;;1.17;0.60;;;;;;;6.76;100.00;100229.75;5050579;28;20049;-70
2021/12/16 06:03:52;;;;;;;0.35;0.35;;;;;;;6.76;100.00;100228.06;5050355;28;20173;-70
2021/12/16 06:06:21;;;;;;;1.33;0.45;;;;;;;6.80;100.00;100234.19;5054341;28;20087;-69
2021/12/16 06:08:51;;;;;;;0.60;0.40;;;;;;;6.81;100.00;100234.25;5051215;28;20060;-69
2021/12/16 06:11:24;;;;;;;1.45;0.57;;;;;;;6.82;100.00;100241.13;5050703;28;20056;-69
2021/12/16 06:14:03;;;;;;;2.35;0.65;;;;;;;6.85;100.00;100243.81;5049717;28;20053;-68
2021/12/16 06:22:40;;;;;;;16.00;5.47;;;;;;;6.94;100.00;100251.00;4988454;28;20464;-70
2021/12/16 06:28:02;;;;;;;1.63;0.60;;;;;;;7.01;100.00;100262.34;5037161;28;20056;-68
2021/12/16 06:30:33;;;;;;;65.65;21.25;;;;;;;7.02;100.00;100264.13;5051228;28;20496;-69
2021/12/16 06:33:03;;;;;;;60.60;14.10;;;;;;;7.02;100.00;100269.28;5049423;28;20049;-69
2021/12/16 06:35:33;;;;;;;4.25;1.70;;;;;;;7.02;100.00;100274.41;5050080;28;20053;-69
2021/12/16 06:38:02;;;;;;;3.28;1.17;;;;;;;7.01;100.00;100270.06;5049757;28;20045;-69
2021/12/16 06:40:30;;;;;;;1.45;0.75;;;;;;;7.01;100.00;100275.22;5050860;28;20045;-71
2021/12/16 06:43:01;;;;;;;0.52;0.35;;;;;;;6.95;100.00;100285.31;5051985;28;20049;-69
2021/12/16 06:45:34;;;;;;;0.68;0.60;;;;;;;6.91;100.00;100285.19;5052949;28;20057;-68
2021/12/16 06:48:06;;;;;;;1.05;0.20;;;;;;;6.86;100.00;100289.28;5052040;28;20048;-69
2021/12/16 06:50:45;;;;;;;3.78;0.75;;;;;;;6.85;100.00;100292.69;5050905;28;20045;-68
2021/12/16 06:53:20;;;;;;;1.48;0.30;;;;;;;6.85;100.00;100300.41;5049909;28;20131;-70
2021/12/16 06:55:55;;;;;;;1.95;1.08;;;;;;;6.86;100.00;100291.84;5036998;28;20073;-70
2021/12/16 06:58:31;;;;;;;0.55;0.55;;;;;;;6.89;100.00;100294.56;5050129;28;20049;-70
2021/12/16 07:01:08;;;;;;;0.85;0.70;;;;;;;6.92;100.00;100297.25;5054214;28;20041;-70
2021/12/16 07:03:46;;;;;;;0.60;0.50;;;;;;;6.94;100.00;100299.88;5055067;28;20049;-70
2021/12/16 07:06:18;;;;;;;2.00;0.60;;;;;;;6.97;100.00;100307.69;5056454;28;20045;-69
2021/12/16 07:08:49;;;;;;;1.10;0.52;;;;;;;6.99;100.00;100310.34;5053937;28;20049;-69
2021/12/16 07:11:18;;;;;;;0.93;0.40;;;;;;;7.02;100.00;100310.44;5044893;28;20048;-69
2021/12/16 07:13:56;;;;;;;1.95;0.40;;;;;;;7.04;100.00;100313.94;5053129;28;20453;-69
2021/12/16 07:16:27;;;;;;;1.58;0.75;;;;;;;7.06;100.00;100322.59;5053090;28;20437;-69
2021/12/16 07:18:56;;;;;;;0.82;0.32;;;;;;;7.06;100.00;100332.88;5066533;28;20059;-69
2021/12/16 07:21:26;;;;;;;3.17;0.40;;;;;;;7.06;100.00;100332.88;5053056;28;20041;-68
2021/12/16 07:23:55;;;;;;;4.57;0.50;;;;;;;7.06;100.00;100327.75;5052976;28;20089;-68
2021/12/16 07:26:25;;;;;;;0.20;0.20;;;;;;;7.06;100.00;100322.59;5053797;28;20041;-69
2021/12/16 07:28:53;;;;;;;0.57;0.25;;;;;;;7.06;100.00;100335.47;5054040;28;20498;-68
2021/12/16 07:31:22;;;;;;;0.70;0.45;;;;;;;7.04;100.00;100337.09;5053566;28;20069;-68
2021/12/16 07:33:50;;;;;;;0.60;0.30;;;;;;;7.03;100.00;100343.03;5052803;28;20045;-68
2021/12/16 07:36:19;;;;;;;0.35;0.30;;;;;;;7.02;100.00;100346.44;5053343;28;20129;-69
2021/12/16 07:38:49;;;;;;;0.52;0.47;;;;;;;7.00;100.00;100345.50;5053096;28;20455;-68
2021/12/16 07:41:21;;;;;;;2.65;0.50;;;;;;;7.00;100.00;100358.38;5052989;28;20049;-68
2021/12/16 07:43:58;;;;;;;0.38;0.38;;;;;;;6.98;100.00;100360.00;5052969;28;20052;-69
2021/12/16 07:46:28;;;;;;;0.63;0.35;;;;;;;6.98;100.00;100365.16;5051735;28;20059;-69
2021/12/16 07:48:57;;;;;;;0.30;0.25;;;;;;;6.96;100.00;100362.50;5053136;28;20053;-69
2021/12/16 07:51:26;;;;;;;1.20;0.43;;;;;;;6.96;100.00;100361.63;5052440;28;20053;-69
2021/12/16 07:53:56;;;;;;;1.33;0.40;;;;;;;6.95;100.00;100365.03;5052485;28;20494;-69
2021/12/16 07:56:24;;;;;;;0.60;0.45;;;;;;;6.91;100.00;100356.31;5053016;28;20063;-69
2021/12/16 07:58:53;;;;;;;1.10;0.40;;;;;;;6.97;100.00;100374.56;5052615;28;20110;-68
2021/12/16 08:01:22;;;;;;;0.32;0.30;;;;;;;6.98;100.00;100375.44;5054424;28;20045;-68
2021/12/16 08:03:51;;;;;;;0.43;0.30;;;;;;;7.00;100.00;100384.09;5055759;28;20045;-68
2021/12/16 08:06:23;;;;;;;1.50;0.55;;;;;;;6.96;100.00;100380.50;5053077;28;20537;-69
2021/12/16 08:08:55;;;;;;;2.03;0.47;;;;;;;6.98;100.00;100386.59;5052302;28;20049;-68
2021/12/16 08:11:25;;;;;;;1.48;0.32;;;;;;;6.98;100.00;100385.72;5052082;28;20056;-68
2021/12/16 08:13:54;;;;;;;0.43;0.38;;;;;;;6.98;100.00;100381.44;5052435;28;20089;-68
2021/12/16 08:16:23;;;;;;;0.38;0.32;;;;;;;6.99;100.00;100383.22;5051832;28;20451;-68
2021/12/16 08:18:52;;;;;;;0.40;0.28;;;;;;;6.99;100.00;100382.34;5052446;28;20060;-68
2021/12/16 08:21:23;;;;;;;0.47;0.30;;;;;;;6.97;100.00;100384.84;5052722;28;20384;-68
2021/12/16 08:23:52;;;;;;;0.50;0.40;;;;;;;6.97;100.00;100386.56;5052337;28;20052;-68
2021/12/16 08:26:20;;;;;;;1.25;0.50;;;;;;;6.95;100.00;100383.91;5052627;28;20053;-68
2021/12/16 08:28:50;;;;;;;0.73;0.40;;;;;;;6.95;100.00;100390.78;5054025;28;20080;-68
2021/12/16 08:31:19;;;;;;;0.85;0.50;;;;;;;6.92;100.00;100392.41;5053945;28;20044;-68
2021/12/16 08:33:48;;;;;;;0.70;0.32;;;;;;;6.88;100.00;100393.09;5053633;28;20049;-68
2021/12/16 08:36:18;;;;;;;0.60;0.40;;;;;;;6.85;100.00;100385.28;5053046;28;20430;-68
2021/12/16 08:38:47;;;;;;;0.50;0.40;;;;;;;6.82;100.00;100385.13;5052426;28;20079;-68
2021/12/16 08:41:20;;;;;;;0.73;0.38;;;;;;;6.85;100.00;100389.50;5052107;28;20080;-69
2021/12/16 08:43:50;;;;;;;1.23;0.50;;;;;;;6.83;100.00;100392.03;5052210;28;20051;-68
2021/12/16 08:46:23;;;;;;;0.47;0.47;;;;;;;6.83;100.00;100392.03;5051999;28;20103;-68
2021/12/16 08:48:53;;;;;;;1.77;0.40;;;;;;;6.84;100.00;100392.91;5052212;28;20503;-68
2021/12/16 08:51:25;;;;;;;0.50;0.30;;;;;;;6.85;100.00;100393.00;5052607;28;20045;-68
2021/12/16 08:53:54;;;;;;;2.70;0.50;;;;;;;6.84;100.00;100401.50;5038603;28;20091;-68
2021/12/16 08:56:25;;;;;;;1.15;0.50;;;;;;;6.85;100.00;100397.22;5051934;28;20115;-68
2021/12/16 08:58:55;;;;;;;2.05;0.65;;;;;;;6.81;100.00;100401.41;5052124;28;20099;-68
2021/12/16 09:01:27;;;;;;;1.10;0.60;;;;;;;6.81;100.00;100397.94;5055016;28;20049;-69
2021/12/16 09:03:58;;;;;;;2.30;0.47;;;;;;;6.80;100.00;100401.31;5050980;28;20044;-68
2021/12/16 09:06:27;;;;;;;0.60;0.38;;;;;;;6.80;100.00;100403.91;5052029;28;20077;-68
2021/12/16 09:08:57;;;;;;;0.95;0.50;;;;;;;6.79;100.00;100400.44;5051307;28;20051;-68
2021/12/16 09:11:33;;;;;;;2.97;0.47;;;;;;;6.78;100.00;100414.16;5051586;28;20048;-68
2021/12/16 09:14:03;;;;;;;1.92;0.50;;;;;;;6.77;100.00;100412.38;5050870;28;20137;-68
2021/12/16 09:16:35;;;;;;;0.77;0.30;;;;;;;6.76;100.00;100420.00;5051410;28;20052;-68
2021/12/16 09:19:04;;;;;;;1.35;0.77;;;;;;;6.74;100.00;100417.41;5051052;28;20041;-68
2021/12/16 09:21:36;;;;;;;1.65;0.40;;;;;;;6.74;100.00;100404.56;5036724;28;20053;-68
2021/12/16 09:24:07;;;;;;;0.88;0.60;;;;;;;6.74;100.00;100413.97;5050595;28;20490;-68
2021/12/16 09:26:36;;;;;;;0.90;0.50;;;;;;;6.74;100.00;100419.09;5051489;28;20045;-68
2021/12/16 09:29:06;;;;;;;1.25;0.50;;;;;;;6.74;100.00;100421.69;5050892;28;20414;-68
2021/12/16 09:31:36;;;;;;;1.67;0.57;;;;;;;6.71;100.00;100425.88;5051080;28;20049;-68
2021/12/16 09:34:08;;;;;;;1.42;0.75;;;;;;;6.71;100.00;100419.84;5050669;28;20107;-68
2021/12/16 09:36:39;;;;;;;3.13;0.82;;;;;;;6.71;100.00;100422.41;5037851;28;20130;-68
2021/12/16 09:39:11;;;;;;;2.00;0.70;;;;;;;6.69;100.00;100424.06;5050771;28;20049;-68
2021/12/16 09:41:42;;;;;;;1.67;0.70;;;;;;;6.73;100.00;100425.91;5050969;28;20482;-68
2021/12/16 09:44:12;;;;;;;2.75;1.30;;;;;;;6.72;100.00;100424.19;5050367;28;20049;-67
2021/12/16 09:46:44;;;;;;;2.47;0.93;;;;;;;6.72;100.00;100439.59;5050337;28;20053;-67
2021/12/16 09:49:12;;;;;;;2.20;1.40;;;;;;;6.72;100.00;100432.75;5050245;28;20053;-68
2021/12/16 09:51:43;;;;;;;2.92;1.55;;;;;;;6.74;100.00;100439.69;5050126;28;20098;-68
2021/12/16 09:54:13;;;;;;;3.03;1.67;;;;;;;6.75;100.00;100433.69;5050002;28;20049;-67
2021/12/16 09:56:44;;;;;;;4.43;2.05;;;;;;;6.75;100.00;100444.84;5050462;28;20049;-67
2021/12/16 09:59:16;;;;;;;6.35;2.00;;;;;;;6.74;100.00;100443.13;5053442;28;20044;-67
2021/12/16 10:01:47;;;;;;;5.25;1.85;;;;;;;6.76;100.00;100456.00;5049639;28;20041;-68
2021/12/16 10:04:19;;;;;;;3.78;1.60;;;;;;;6.77;100.00;100463.81;5050510;28;20081;-68
2021/12/16 10:06:50;;;;;;;3.55;2.15;;;;;;;6.74;100.00;100473.97;5049580;28;20052;-67
2021/12/16 10:09:19;;;;;;;2.38;1.50;;;;;;;6.74;100.00;100473.09;5050661;28;20491;-67
2021/12/16 10:11:51;;;;;;;3.33;1.85;;;;;;;6.72;100.00;100476.47;5050520;28;20053;-67
2021/12/16 10:14:43;;;;;;;4.67;1.80;;;;;;;6.72;100.00;100478.16;5050077;28;20387;-68
2021/12/16 10:17:24;;;;;;;2.65;1.52;;;;;;;6.73;100.00;100467.06;5051256;28;20060;-68
2021/12/16 10:19:54;;;;;;;3.60;2.00;;;;;;;6.74;100.00;100473.09;5037633;28;20052;-68
2021/12/16 10:22:29;;;;;;;2.70;1.40;;;;;;;6.75;100.00;100468.00;5052637;28;20528;-68
2021/12/16 10:25:16;;;;;;;3.10;1.67;;;;;;;6.75;100.00;100475.72;5050794;28;20270;-67
2021/12/16 10:27:58;;;;;;;4.85;2.03;;;;;;;6.73;100.00;100485.06;5050561;28;20616;-68
2021/12/16 10:30:42;;;;;;;5.32;1.83;;;;;;;6.75;100.00;100488.56;5050129;28;20077;-68
2021/12/16 10:33:30;;;;;;;3.40;1.77;;;;;;;6.76;100.00;100490.34;5036785;28;20079;-68
2021/12/16 10:36:20;;;;;;;1.85;1.10;;;;;;;6.79;100.00;100498.16;5054280;28;20049;-69
2021/12/16 10:38:51;;;;;;;3.47;1.63;;;;;;;6.79;100.00;100497.31;5047996;28;20095;-68
2021/12/16 10:41:24;;;;;;;1.77;1.33;;;;;;;6.77;100.00;100501.50;5053975;28;20060;-68
2021/12/16 10:43:55;;;;;;;2.92;2.03;;;;;;;6.73;100.00;100503.06;5054017;28;20133;-67
2021/12/16 10:46:31;;;;;;;1.70;1.40;;;;;;;6.71;100.00;100500.44;5054316;28;20107;-68
2021/12/16 10:49:01;;;;;;;3.60;1.77;;;;;;;6.72;100.00;100496.16;5054263;28;20491;-68
2021/12/16 10:51:34;;;;;;;6.50;1.92;;;;;;;6.72;100.00;100491.91;5054006;28;20103;-67
2021/12/16 10:54:13;;;;;;;1.98;1.40;;;;;;;6.71;100.00;100487.59;5054013;28;20045;-68
2021/12/16 10:57:01;;;;;;;3.65;2.05;;;;;;;6.70;100.00;100487.50;5054555;28;20103;-68
2021/12/16 10:59:34;;;;;;;2.33;1.48;;;;;;;6.69;100.00;100490.91;5054821;28;20478;-68
2021/12/16 11:02:10;;;;;;;3.60;1.85;;;;;;;6.68;100.00;100500.28;5053298;28;20600;-67
2021/12/16 11:04:43;;;;;;;4.78;1.85;;;;;;;6.69;100.00;100511.47;5053627;28;20136;-68
2021/12/16 11:07:13;;;;;;;;;;;;;;;6.69;100.00;100511.47;5054315;28;20045;-67
2021/12/16 11:09:52;;;;;;;5.28;1.80;;;;;;;6.71;100.00;100514.97;5045715;28;19964;-68
2021/12/16 11:12:38;;;;;;;3.22;1.52;;;;;;;6.70;100.00;100508.09;5053348;28;20053;-68
2021/12/16 11:15:12;;;;;;;3.15;1.88;;;;;;;6.70;100.00;100506.38;5039254;28;20084;-69
2021/12/16 11:17:44;;;;;;;3.20;2.05;;;;;;;6.70;100.00;100502.94;5053314;28;20124;-69
2021/12/16 11:20:35;;;;;;;4.10;2.17;;;;;;;6.65;100.00;100495.03;5053501;28;20088;-69
2021/12/16 11:23:07;;;;;;;3.08;1.92;;;;;;;6.65;100.00;100507.91;5038349;28;20852;-69
2021/12/16 11:25:38;;;;;;;3.28;2.03;;;;;;;6.61;100.00;100502.56;5053167;28;20049;-69
2021/12/16 11:28:16;;;;;;;3.45;1.88;;;;;;;6.56;100.00;100504.06;5053280;28;20129;-70
2021/12/16 11:30:49;;;;;;;4.32;1.90;;;;;;;6.52;100.00;100513.34;5052433;28;20049;-69
2021/12/16 11:33:27;;;;;;;4.90;2.00;;;;;;;6.50;100.00;100512.38;5053254;28;20487;-68
2021/12/16 11:36:03;;;;;;;3.08;1.83;;;;;;;6.48;100.00;100520.06;5053234;28;20139;-68
2021/12/16 11:38:39;;;;;;;3.03;2.00;;;;;;;6.48;100.00;100516.59;5052843;28;20080;-68
2021/12/16 11:41:35;;;;;;;2.75;1.88;;;;;;;6.46;100.00;100516.53;5053249;28;20048;-68
2021/12/16 11:44:08;;;;;;;3.80;1.98;;;;;;;6.40;100.00;100518.84;5053199;28;20051;-69
2021/12/16 11:46:40;;;;;;;3.47;2.00;;;;;;;6.37;100.00;100526.44;5039690;28;20149;-68
2021/12/16 11:49:13;;;;;;;2.38;1.70;;;;;;;6.35;100.00;100529.75;5053195;28;20045;-68
2021/12/16 11:51:45;;;;;;;2.10;1.27;;;;;;;6.30;100.00;100527.00;5054056;28;20048;-68
2021/12/16 11:54:22;;;;;;;3.57;2.20;;;;;;;6.28;100.00;100531.19;5054033;28;20101;-68
2021/12/16 11:56:54;;;;;;;3.45;2.35;;;;;;;6.24;100.00;100525.00;5055044;28;20045;-68
2021/12/16 11:59:26;;;;;;;2.77;1.97;;;;;;;6.15;100.00;100526.31;5053411;28;20095;-69
2021/12/16 12:01:55;;;;;;;2.78;2.03;;;;;;;6.08;100.00;100525.16;5052790;28;20308;-68
2021/12/16 12:04:31;;;;;;;4.35;2.05;;;;;;;6.06;100.00;100530.22;5052316;28;20076;-68
2021/12/16 12:07:00;;;;;;;2.28;1.63;;;;;;;6.06;100.00;100532.78;5052706;28;20430;-69
2021/12/16 12:09:38;;;;;;;4.47;1.88;;;;;;;5.98;100.00;100523.91;5052838;28;20111;-69
2021/12/16 12:12:08;;;;;;;3.85;2.40;;;;;;;6.06;100.00;100555.03;5052509;28;20099;-69
2021/12/16 12:14:38;;;;;;;4.13;2.05;;;;;;;6.05;100.00;100554.16;5052241;28;20210;-68
2021/12/16 12:17:10;;;;;;;3.28;1.65;;;;;;;6.04;100.00;100549.81;5052731;28;20053;-68
2021/12/16 12:19:47;;;;;;;2.75;1.63;;;;;;;6.04;100.00;100554.09;5054465;28;20518;-68
2021/12/16 12:22:16;;;;;;;2.78;1.58;;;;;;;6.00;100.00;100563.38;5051972;28;20080;-68
2021/12/16 12:24:47;;;;;;;3.63;1.75;;;;;;;5.95;100.00;100559.69;5051775;28;20133;-68
2021/12/16 12:27:18;;;;;;;2.15;1.42;;;;;;;5.95;100.00;100559.69;5052599;28;20128;-68
2021/12/16 12:29:49;;;;;;;3.47;1.90;;;;;;;5.95;100.00;100563.94;5051968;28;20051;-68
2021/12/16 12:32:21;;;;;;;2.85;1.67;;;;;;;5.94;100.00;100573.34;5051405;28;20041;-68
2021/12/16 12:34:54;;;;;;;2.55;1.60;;;;;;;5.96;100.00;100579.44;5051842;28;20446;-68
2021/12/16 12:37:25;;;;;;;4.18;1.85;;;;;;;5.96;100.00;100576.88;5051971;28;20045;-68
2021/12/16 12:39:57;;;;;;;2.17;1.30;;;;;;;5.97;100.00;100578.63;5051621;28;20096;-68
2021/12/16 12:42:26;;;;;;;2.88;1.48;;;;;;;5.97;100.00;100576.06;5051554;28;20556;-68
2021/12/16 12:44:55;;;;;;;3.78;1.70;;;;;;;5.96;100.00;100579.44;5052024;28;20049;-68
2021/12/16 12:47:27;;;;;;;2.83;1.50;;;;;;;5.96;100.00;100576.88;5051681;28;20073;-68
2021/12/16 12:50:09;;;;;;;3.92;1.88;;;;;;;5.98;100.00;100580.41;5051915;28;20052;-68
2021/12/16 12:52:38;;;;;;;2.22;1.55;;;;;;;6.01;100.00;100584.78;5052171;28;20107;-68
2021/12/16 12:55:13;;;;;;;2.83;1.75;;;;;;;6.04;100.00;100595.19;5053946;28;20095;-68
2021/12/16 12:57:43;;;;;;;2.67;1.38;;;;;;;6.06;100.00;100599.56;5035979;28;20045;-68
2021/12/16 13:00:26;;;;;;;2.55;1.60;;;;;;;6.07;100.00;100609.06;5051713;28;20056;-68
2021/12/16 13:02:59;;;;;;;2.65;1.38;;;;;;;6.12;100.00;100611.84;5051041;28;20049;-69
2021/12/16 13:05:29;;;;;;;;;;;;;;;6.13;100.00;100616.16;5051533;28;20142;-69
2021/12/16 13:08:02;;;;;;;4.63;1.50;;;;;;;6.13;100.00;100616.16;5051567;28;19925;-68
2021/12/16 13:10:37;;;;;;;2.22;1.35;;;;;;;6.15;100.00;100623.94;5051463;28;20045;-69
2021/12/16 13:13:29;;;;;;;5.40;1.42;;;;;;;6.17;100.00;100624.88;5050647;28;20053;-69
2021/12/16 13:16:17;;;;;;;3.50;1.15;;;;;;;6.18;100.00;100626.63;5011764;28;20144;-69
2021/12/16 13:27:38;;;;;;;4.70;1.70;;;;;;;6.20;100.00;100643.00;4981486;28;20046;-69
2021/12/16 13:30:20;;;;;;;3.33;1.77;;;;;;;6.20;100.00;100645.56;5011126;28;20046;-69
2021/12/16 13:33:16;;;;;;;3.38;2.13;;;;;;;6.17;100.00;100648.88;5011185;28;20100;-69
2021/12/16 13:35:51;;;;;;;4.07;2.20;;;;;;;6.13;100.00;100649.53;5011153;28;20137;-69
2021/12/16 13:38:23;;;;;;;2.90;1.90;;;;;;;6.12;100.00;100649.50;5004553;28;20046;-69
2021/12/16 13:40:52;;;;;;;2.95;1.95;;;;;;;6.11;100.00;100647.72;5005198;28;20480;-70
2021/12/16 13:43:27;;;;;;;4.82;2.20;;;;;;;6.08;100.00;100651.91;5024707;28;20147;-70
2021/12/16 13:46:15;;;;;;;3.63;1.67;;;;;;;6.08;100.00;100654.47;4993783;28;20054;-69
2021/12/16 13:48:55;;;;;;;2.28;1.60;;;;;;;6.07;100.00;100654.44;5015005;28;20052;-71